sensor_id;sensor_type;location;lat;lon;timestamp;pressure;altitude;pressure_sealevel;temperature;humidity
74346;BME280;62776;50.518;6.732;2023-10-09T00:00:33;97144.19;;;16.62;100.00
74346;BME280;62776;50.518;6.732;2023-10-09T00:03:36;97128.44;;;16.62;100.00
74346;BME280;62776;50.518;6.732;2023-10-09T00:06:25;97133.69;;;16.62;100.00
74346;BME280;62776;50.518;6.732;2023-10-09T00:09:22;97132.84;;;16.62;100.00
74346;BME280;62776;50.518;6.732;2023-10-09T00:12:08;97124.91;;;16.63;100.00
74346;BME280;62776;50.518;6.732;2023-10-09T00:14:56;97127.50;;;16.65;100.00
74346;BME280;62776;50.518;6.732;2023-10-09T00:17:48;97124.03;;;16.64;100.00
74346;BME280;62776;50.518;6.732;2023-10-09T00:20:45;97118.06;;;16.58;100.00
74346;BME280;62776;50.518;6.732;2023-10-09T00:23:46;97126.00;;;16.56;100.00
74346;BME280;62776;50.518;6.732;2023-10-09T00:26:45;97120.63;;;16.59;100.00
74346;BME280;62776;50.518;6.732;2023-10-09T00:29:31;97123.25;;;16.59;100.00
74346;BME280;62776;50.518;6.732;2023-10-09T00:32:23;97122.41;;;16.59;100.00
74346;BME280;62776;50.518;6.732;2023-10-09T00:35:12;97124.19;;;16.58;100.00
74346;BME280;62776;50.518;6.732;2023-10-09T00:38:31;97124.28;;;16.53;100.00
74346;BME280;62776;50.518;6.732;2023-10-09T00:41:20;97121.66;;;16.53;100.00
74346;BME280;62776;50.518;6.732;2023-10-09T00:44:08;97120.78;;;16.51;100.00
74346;BME280;62776;50.518;6.732;2023-10-09T00:46:54;97109.44;;;16.51;100.00
74346;BME280;62776;50.518;6.732;2023-10-09T00:49:59;97108.69;;;16.46;100.00
74346;BME280;62776;50.518;6.732;2023-10-09T00:52:53;97107.00;;;16.43;100.00
74346;BME280;62776;50.518;6.732;2023-10-09T00:55:47;97105.19;;;16.47;100.00
74346;BME280;62776;50.518;6.732;2023-10-09T00:58:41;97096.50;;;16.45;100.00
74346;BME280;62776;50.518;6.732;2023-10-09T01:01:32;97095.63;;;16.43;100.00
74346;BME280;62776;50.518;6.732;2023-10-09T01:04:42;97092.47;;;16.29;100.00
74346;BME280;62776;50.518;6.732;2023-10-09T01:07:30;97086.06;;;16.42;100.00
74346;BME280;62776;50.518;6.732;2023-10-09T01:10:18;97088.63;;;16.43;100.00
74346;BME280;62776;50.518;6.732;2023-10-09T01:12:48;97083.44;;;16.42;100.00
74346;BME280;62776;50.518;6.732;2023-10-09T01:15:41;97083.31;;;16.46;100.00
74346;BME280;62776;50.518;6.732;2023-10-09T01:18:35;97081.56;;;16.47;100.00
74346;BME280;62776;50.518;6.732;2023-10-09T01:21:26;97085.06;;;16.46;100.00
74346;BME280;62776;50.518;6.732;2023-10-09T01:24:15;97085.94;;;16.46;100.00
74346;BME280;62776;50.518;6.732;2023-10-09T01:27:02;97077.13;;;16.49;100.00
74346;BME280;62776;50.518;6.732;2023-10-09T01:29:57;97075.31;;;16.51;100.00
74346;BME280;62776;50.518;6.732;2023-10-09T01:32:45;97075.28;;;16.52;100.00
74346;BME280;62776;50.518;6.732;2023-10-09T01:35:31;97063.91;;;16.53;100.00
74346;BME280;62776;50.518;6.732;2023-10-09T01:38:19;97065.63;;;16.56;100.00
74346;BME280;62776;50.518;6.732;2023-10-09T01:41:16;97057.75;;;16.56;100.00
74346;BME280;62776;50.518;6.732;2023-10-09T01:44:05;97048.88;;;16.60;100.00
74346;BME280;62776;50.518;6.732;2023-10-09T01:46:58;97052.44;;;16.58;100.00
74346;BME280;62776;50.518;6.732;2023-10-09T01:49:45;97040.19;;;16.58;100.00
74346;BME280;62776;50.518;6.732;2023-10-09T01:52:38;97042.00;;;16.56;100.00
74346;BME280;62776;50.518;6.732;2023-10-09T01:55:25;97048.00;;;16.61;100.00
74346;BME280;62776;50.518;6.732;2023-10-09T01:58:26;97044.50;;;16.59;100.00
74346;BME280;62776;50.518;6.732;2023-10-09T02:01:18;97039.25;;;16.61;100.00
74346;BME280;62776;50.518;6.732;2023-10-09T02:04:04;97044.50;;;16.59;100.00
74346;BME280;62776;50.518;6.732;2023-10-09T02:06:57;97045.44;;;16.58;100.00
74346;BME280;62776;50.518;6.732;2023-10-09T02:09:43;97032.31;;;16.58;100.00
74346;BME280;62776;50.518;6.732;2023-10-09T02:12:32;97033.13;;;16.60;100.00
74346;BME280;62776;50.518;6.732;2023-10-09T02:15:19;97034.81;;;16.63;100.00
74346;BME280;62776;50.518;6.732;2023-10-09T02:18:25;97040.88;;;16.65;100.00
74346;BME280;62776;50.518;6.732;2023-10-09T02:21:13;97035.59;;;16.66;100.00
74346;BME280;62776;50.518;6.732;2023-10-09T02:24:02;97033.84;;;16.65;100.00
74346;BME280;62776;50.518;6.732;2023-10-09T02:26:53;97041.66;;;16.68;100.00
74346;BME280;62776;50.518;6.732;2023-10-09T02:29:40;97029.41;;;16.69;100.00
74346;BME280;62776;50.518;6.732;2023-10-09T02:32:28;97026.72;;;16.70;100.00
74346;BME280;62776;50.518;6.732;2023-10-09T02:35:16;97025.66;;;16.77;100.00
74346;BME280;62776;50.518;6.732;2023-10-09T02:38:24;97020.28;;;16.82;100.00
74346;BME280;62776;50.518;6.732;2023-10-09T02:41:10;97014.00;;;16.87;100.00
74346;BME280;62776;50.518;6.732;2023-10-09T02:43:59;97022.69;;;16.89;100.00
74346;BME280;62776;50.518;6.732;2023-10-09T02:46:59;97028.88;;;16.87;100.00
74346;BME280;62776;50.518;6.732;2023-10-09T02:49:51;97031.50;;;16.88;100.00
74346;BME280;62776;50.518;6.732;2023-10-09T02:52:38;97019.16;;;16.90;100.00
74346;BME280;62776;50.518;6.732;2023-10-09T02:55:27;97020.91;;;16.91;100.00
74346;BME280;62776;50.518;6.732;2023-10-09T02:58:17;97024.34;;;16.93;100.00
74346;BME280;62776;50.518;6.732;2023-10-09T03:01:11;97026.25;;;16.88;100.00
74346;BME280;62776;50.518;6.732;2023-10-09T03:03:59;97025.28;;;16.91;100.00
74346;BME280;62776;50.518;6.732;2023-10-09T03:06:48;97020.94;;;16.90;100.00
74346;BME280;62776;50.518;6.732;2023-10-09T03:09:40;97025.44;;;16.85;100.00
74346;BME280;62776;50.518;6.732;2023-10-09T03:12:26;97021.00;;;16.88;100.00
74346;BME280;62776;50.518;6.732;2023-10-09T03:15:16;97022.81;;;16.86;100.00
74346;BME280;62776;50.518;6.732;2023-10-09T03:18:07;97016.75;;;16.83;100.00
74346;BME280;62776;50.518;6.732;2023-10-09T03:20:53;97013.19;;;16.85;100.00
74346;BME280;62776;50.518;6.732;2023-10-09T03:23:48;97024.66;;;16.81;100.00
74346;BME280;62776;50.518;6.732;2023-10-09T03:26:37;97022.97;;;16.80;100.00
74346;BME280;62776;50.518;6.732;2023-10-09T03:29:27;97028.31;;;16.76;100.00
74346;BME280;62776;50.518;6.732;2023-10-09T03:32:13;97029.97;;;16.80;100.00
74346;BME280;62776;50.518;6.732;2023-10-09T03:34:59;97030.03;;;16.78;100.00
74346;BME280;62776;50.518;6.732;2023-10-09T03:37:48;97026.53;;;16.78;100.00
74346;BME280;62776;50.518;6.732;2023-10-09T03:40:34;97024.78;;;16.78;100.00
74346;BME280;62776;50.518;6.732;2023-10-09T03:43:25;97029.16;;;16.78;100.00
74346;BME280;62776;50.518;6.732;2023-10-09T03:46:11;97022.16;;;16.78;100.00
74346;BME280;62776;50.518;6.732;2023-10-09T03:49:07;97020.38;;;16.79;100.00
74346;BME280;62776;50.518;6.732;2023-10-09T03:52:01;97015.16;;;16.77;100.00
74346;BME280;62776;50.518;6.732;2023-10-09T03:54:48;97006.25;;;16.83;100.00
74346;BME280;62776;50.518;6.732;2023-10-09T03:57:35;97007.06;;;16.86;100.00
74346;BME280;62776;50.518;6.732;2023-10-09T04:00:21;97007.06;;;16.86;100.00
74346;BME280;62776;50.518;6.732;2023-10-09T04:03:16;97010.66;;;16.82;100.00
74346;BME280;62776;50.518;6.732;2023-10-09T04:06:02;97015.03;;;16.82;100.00
74346;BME280;62776;50.518;6.732;2023-10-09T04:08:52;97010.78;;;16.78;100.00
74346;BME280;62776;50.518;6.732;2023-10-09T04:11:41;97002.91;;;16.78;100.00
74346;BME280;62776;50.518;6.732;2023-10-09T04:14:47;97011.09;;;16.67;100.00
74346;BME280;62776;50.518;6.732;2023-10-09T04:17:40;97012.50;;;16.79;100.00
74346;BME280;62776;50.518;6.732;2023-10-09T04:20:29;97010.72;;;16.79;100.00
74346;BME280;62776;50.518;6.732;2023-10-09T04:23:18;96989.88;;;16.75;100.00
74346;BME280;62776;50.518;6.732;2023-10-09T04:26:20;96995.91;;;16.78;100.00
74346;BME280;62776;50.518;6.732;2023-10-09T04:29:07;97001.97;;;16.80;100.00
74346;BME280;62776;50.518;6.732;2023-10-09T04:31:57;97000.31;;;16.76;100.00
74346;BME280;62776;50.518;6.732;2023-10-09T04:34:46;97020.44;;;16.76;100.00
74346;BME280;62776;50.518;6.732;2023-10-09T04:37:35;97021.38;;;16.73;100.00
74346;BME280;62776;50.518;6.732;2023-10-09T04:40:25;97015.41;;;16.68;100.00
74346;BME280;62776;50.518;6.732;2023-10-09T04:43:29;97007.59;;;16.65;100.00
74346;BME280;62776;50.518;6.732;2023-10-09T04:46:19;96999.78;;;16.64;100.00
74346;BME280;62776;50.518;6.732;2023-10-09T04:49:12;97001.56;;;16.63;100.00
74346;BME280;62776;50.518;6.732;2023-10-09T04:52:14;97001.59;;;16.62;100.00
74346;BME280;62776;50.518;6.732;2023-10-09T04:55:26;96995.56;;;16.58;100.00
74346;BME280;62776;50.518;6.732;2023-10-09T04:58:13;96999.00;;;16.60;100.00
74346;BME280;62776;50.518;6.732;2023-10-09T05:01:09;96993.84;;;16.57;100.00
74346;BME280;62776;50.518;6.732;2023-10-09T05:04:02;97008.69;;;16.58;100.00
74346;BME280;62776;50.518;6.732;2023-10-09T05:06:53;97006.97;;;16.57;100.00
74346;BME280;62776;50.518;6.732;2023-10-09T05:09:42;97014.94;;;16.51;100.00
74346;BME280;62776;50.518;6.732;2023-10-09T05:12:41;97018.50;;;16.50;100.00
74346;BME280;62776;50.518;6.732;2023-10-09T05:15:36;97015.06;;;16.48;100.00
74346;BME280;62776;50.518;6.732;2023-10-09T05:18:25;97010.63;;;16.50;100.00
74346;BME280;62776;50.518;6.732;2023-10-09T05:21:13;97013.25;;;16.50;100.00
74346;BME280;62776;50.518;6.732;2023-10-09T05:24:03;97009.03;;;16.44;100.00
74346;BME280;62776;50.518;6.732;2023-10-09T05:26:58;97002.91;;;16.44;100.00
74346;BME280;62776;50.518;6.732;2023-10-09T05:30:03;96997.72;;;16.42;100.00
74346;BME280;62776;50.518;6.732;2023-10-09T05:33:10;97009.97;;;16.42;100.00
74346;BME280;62776;50.518;6.732;2023-10-09T05:36:15;97006.50;;;16.40;100.00
74346;BME280;62776;50.518;6.732;2023-10-09T05:39:17;96998.81;;;16.34;100.00
74346;BME280;62776;50.518;6.732;2023-10-09T05:42:30;97006.63;;;16.35;100.00
74346;BME280;62776;50.518;6.732;2023-10-09T05:45:23;96997.88;;;16.35;100.00
74346;BME280;62776;50.518;6.732;2023-10-09T05:48:27;97001.44;;;16.32;100.00
74346;BME280;62776;50.518;6.732;2023-10-09T05:51:37;96991.78;;;16.34;100.00
74346;BME280;62776;50.518;6.732;2023-10-09T05:54:31;96986.59;;;16.33;100.00
74346;BME280;62776;50.518;6.732;2023-10-09T05:57:36;96984.84;;;16.32;100.00
74346;BME280;62776;50.518;6.732;2023-10-09T06:00:49;96989.22;;;16.33;100.00
74346;BME280;62776;50.518;6.732;2023-10-09T06:04:11;96997.03;;;16.34;100.00
74346;BME280;62776;50.518;6.732;2023-10-09T06:07:04;96989.91;;;16.39;94.46
74346;BME280;62776;50.518;6.732;2023-10-09T06:09:58;96997.66;;;16.44;87.80
74346;BME280;62776;50.518;6.732;2023-10-09T06:12:57;96993.13;;;16.50;83.74
74346;BME280;62776;50.518;6.732;2023-10-09T06:15:49;96992.03;;;16.59;81.34
74346;BME280;62776;50.518;6.732;2023-10-09T06:18:55;96987.53;;;16.64;77.79
74346;BME280;62776;50.518;6.732;2023-10-09T06:21:58;96983.03;;;16.69;76.15
74346;BME280;62776;50.518;6.732;2023-10-09T06:25:03;96988.19;;;16.72;76.41
74346;BME280;62776;50.518;6.732;2023-10-09T06:27:57;96985.50;;;16.74;72.65
74346;BME280;62776;50.518;6.732;2023-10-09T06:30:44;97011.69;;;16.77;74.86
74346;BME280;62776;50.518;6.732;2023-10-09T06:33:33;97010.78;;;16.78;75.98
74346;BME280;62776;50.518;6.732;2023-10-09T06:36:39;97009.03;;;16.78;76.50
74346;BME280;62776;50.518;6.732;2023-10-09T06:39:38;97019.53;;;16.78;77.97
74346;BME280;62776;50.518;6.732;2023-10-09T06:42:51;97022.09;;;16.80;70.96
74346;BME280;62776;50.518;6.732;2023-10-09T06:45:37;97026.31;;;16.85;76.39
74346;BME280;62776;50.518;6.732;2023-10-09T06:48:41;97026.34;;;16.84;65.25
74346;BME280;62776;50.518;6.732;2023-10-09T06:51:30;97024.28;;;16.95;69.98
74346;BME280;62776;50.518;6.732;2023-10-09T06:54:17;97025.06;;;16.98;64.59
74346;BME280;62776;50.518;6.732;2023-10-09T06:57:03;97026.63;;;17.05;66.66
74346;BME280;62776;50.518;6.732;2023-10-09T07:00:16;97021.34;;;17.07;71.14
74346;BME280;62776;50.518;6.732;2023-10-09T07:03:35;97018.66;;;17.08;64.96
74346;BME280;62776;50.518;6.732;2023-10-09T07:06:23;97025.53;;;17.13;66.36
74346;BME280;62776;50.518;6.732;2023-10-09T07:09:09;97017.53;;;17.17;73.56
74346;BME280;62776;50.518;6.732;2023-10-09T07:11:59;97017.50;;;17.19;71.62
74346;BME280;62776;50.518;6.732;2023-10-09T07:14:46;97018.94;;;17.29;68.73
74346;BME280;62776;50.518;6.732;2023-10-09T07:17:32;97022.19;;;17.38;70.57
74346;BME280;62776;50.518;6.732;2023-10-09T07:20:21;97021.88;;;17.47;70.59
74346;BME280;62776;50.518;6.732;2023-10-09T07:23:26;97027.03;;;17.52;67.33
74346;BME280;62776;50.518;6.732;2023-10-09T07:26:18;97041.63;;;17.62;71.69
74346;BME280;62776;50.518;6.732;2023-10-09T07:29:05;97038.06;;;17.64;77.78
74346;BME280;62776;50.518;6.732;2023-10-09T07:32:02;97040.53;;;17.69;73.53
74346;BME280;62776;50.518;6.732;2023-10-09T07:34:58;97060.50;;;17.75;74.22
74346;BME280;62776;50.518;6.732;2023-10-09T07:37:47;97066.56;;;17.78;72.47
74346;BME280;62776;50.518;6.732;2023-10-09T07:40:37;97073.44;;;17.82;74.46
74346;BME280;62776;50.518;6.732;2023-10-09T07:43:45;97067.09;;;17.89;76.53
74346;BME280;62776;50.518;6.732;2023-10-09T07:46:32;97075.78;;;17.91;75.28
74346;BME280;62776;50.518;6.732;2023-10-09T07:49:22;97076.47;;;17.98;75.04
74346;BME280;62776;50.518;6.732;2023-10-09T07:52:20;97069.38;;;18.00;76.28
74346;BME280;62776;50.518;6.732;2023-10-09T07:55:08;97072.84;;;18.02;72.72
74346;BME280;62776;50.518;6.732;2023-10-09T07:58:12;97066.47;;;18.09;73.38
74346;BME280;62776;50.518;6.732;2023-10-09T08:00:58;97067.16;;;18.15;73.37
74346;BME280;62776;50.518;6.732;2023-10-09T08:04:02;97082.72;;;18.21;71.84
74346;BME280;62776;50.518;6.732;2023-10-09T08:06:59;97080.91;;;18.23;72.57
74346;BME280;62776;50.518;6.732;2023-10-09T08:09:49;97082.59;;;18.26;71.17
74346;BME280;62776;50.518;6.732;2023-10-09T08:12:55;97080.50;;;18.36;70.06
74346;BME280;62776;50.518;6.732;2023-10-09T08:15:44;97080.31;;;18.42;71.03
74346;BME280;62776;50.518;6.732;2023-10-09T08:18:39;97078.38;;;18.47;71.14
74346;BME280;62776;50.518;6.732;2023-10-09T08:21:30;97074.63;;;18.55;73.02
74346;BME280;62776;50.518;6.732;2023-10-09T08:24:31;97078.03;;;18.59;73.64
74346;BME280;62776;50.518;6.732;2023-10-09T08:27:38;97080.38;;;18.66;75.33
74346;BME280;62776;50.518;6.732;2023-10-09T08:30:32;97087.31;;;18.69;73.25
74346;BME280;62776;50.518;6.732;2023-10-09T08:33:39;97092.38;;;18.75;75.31
74346;BME280;62776;50.518;6.732;2023-10-09T08:36:27;97083.53;;;18.77;76.38
74346;BME280;62776;50.518;6.732;2023-10-09T08:39:14;97090.19;;;18.88;78.87
74346;BME280;62776;50.518;6.732;2023-10-09T08:42:11;97086.44;;;18.95;80.39
74346;BME280;62776;50.518;6.732;2023-10-09T08:44:58;97081.91;;;18.98;77.01
74346;BME280;62776;50.518;6.732;2023-10-09T08:47:46;97079.06;;;19.04;76.75
74346;BME280;62776;50.518;6.732;2023-10-09T08:50:36;97091.91;;;19.13;80.62
74346;BME280;62776;50.518;6.732;2023-10-09T08:53:23;97100.47;;;19.20;80.68
74346;BME280;62776;50.518;6.732;2023-10-09T08:56:17;97095.63;;;19.32;85.10
74346;BME280;62776;50.518;6.732;2023-10-09T08:59:08;97098.75;;;19.43;87.00
74346;BME280;62776;50.518;6.732;2023-10-09T09:01:57;97098.66;;;19.47;79.57
74346;BME280;62776;50.518;6.732;2023-10-09T09:04:46;97105.41;;;19.54;80.77
74346;BME280;62776;50.518;6.732;2023-10-09T09:07:36;97107.06;;;19.56;78.08
74346;BME280;62776;50.518;6.732;2023-10-09T09:10:31;97107.25;;;19.52;77.51
74346;BME280;62776;50.518;6.732;2023-10-09T09:13:32;97108.63;;;19.62;82.61
74346;BME280;62776;50.518;6.732;2023-10-09T09:16:21;97099.50;;;19.70;81.31
74346;BME280;62776;50.518;6.732;2023-10-09T09:19:11;97074.69;;;19.76;80.67
74346;BME280;62776;50.518;6.732;2023-10-09T09:22:06;97081.34;;;19.86;78.99
74346;BME280;62776;50.518;6.732;2023-10-09T09:25:00;97064.47;;;19.90;78.66
74346;BME280;62776;50.518;6.732;2023-10-09T09:27:55;97057.34;;;19.92;75.65
74346;BME280;62776;50.518;6.732;2023-10-09T09:30:42;97070.41;;;19.95;74.35
74346;BME280;62776;50.518;6.732;2023-10-09T09:33:28;97067.47;;;20.02;75.84
74346;BME280;62776;50.518;6.732;2023-10-09T09:36:53;97077.06;;;20.05;77.20
74346;BME280;62776;50.518;6.732;2023-10-09T09:39:43;97072.03;;;20.21;76.40
74346;BME280;62776;50.518;6.732;2023-10-09T09:42:42;97071.03;;;20.23;75.48
74346;BME280;62776;50.518;6.732;2023-10-09T09:45:38;97069.22;;;20.25;74.73
74346;BME280;62776;50.518;6.732;2023-10-09T09:48:38;97069.09;;;20.28;73.83
74346;BME280;62776;50.518;6.732;2023-10-09T09:51:31;97075.88;;;20.35;73.86
74346;BME280;62776;50.518;6.732;2023-10-09T09:54:21;97064.34;;;20.38;77.03
74346;BME280;62776;50.518;6.732;2023-10-09T09:58:05;97061.16;;;20.30;76.51
74346;BME280;62776;50.518;6.732;2023-10-09T10:01:10;97053.44;;;20.45;71.45
74346;BME280;62776;50.518;6.732;2023-10-09T10:04:21;97041.69;;;20.52;74.81
74346;BME280;62776;50.518;6.732;2023-10-09T10:07:12;97037.81;;;20.61;72.06
74346;BME280;62776;50.518;6.732;2023-10-09T10:10:39;97032.72;;;20.56;67.01
74346;BME280;62776;50.518;6.732;2023-10-09T10:13:58;97030.94;;;20.77;66.61
74346;BME280;62776;50.518;6.732;2023-10-09T10:17:02;97031.28;;;20.90;62.82
74346;BME280;62776;50.518;6.732;2023-10-09T10:20:05;97038.00;;;20.97;63.94
74346;BME280;62776;50.518;6.732;2023-10-09T10:23:20;97031.72;;;20.99;62.53
74346;BME280;62776;50.518;6.732;2023-10-09T10:26:22;97024.81;;;21.17;69.64
74346;BME280;62776;50.518;6.732;2023-10-09T10:29:26;97020.28;;;21.39;65.97
74346;BME280;62776;50.518;6.732;2023-10-09T10:36:16;97017.72;;;21.75;59.84
74346;BME280;62776;50.518;6.732;2023-10-09T10:39:30;97007.16;;;21.94;60.05
74346;BME280;62776;50.518;6.732;2023-10-09T10:42:31;97014.13;;;22.13;62.10
74346;BME280;62776;50.518;6.732;2023-10-09T10:45:20;97000.38;;;22.24;58.40
74346;BME280;62776;50.518;6.732;2023-10-09T10:48:24;97010.91;;;22.43;58.21
74346;BME280;62776;50.518;6.732;2023-10-09T10:51:23;97011.84;;;22.59;56.14
74346;BME280;62776;50.518;6.732;2023-10-09T10:54:10;97003.38;;;22.69;54.47
74346;BME280;62776;50.518;6.732;2023-10-09T10:57:36;97007.03;;;22.84;58.32
74346;BME280;62776;50.518;6.732;2023-10-09T11:00:40;97000.88;;;23.01;58.29
74346;BME280;62776;50.518;6.732;2023-10-09T11:03:45;96998.50;;;23.12;59.66
74346;BME280;62776;50.518;6.732;2023-10-09T11:06:40;96992.47;;;23.25;55.41
74346;BME280;62776;50.518;6.732;2023-10-09T11:09:29;96997.16;;;23.37;53.10
74346;BME280;62776;50.518;6.732;2023-10-09T11:12:28;96994.59;;;23.52;54.14
74346;BME280;62776;50.518;6.732;2023-10-09T11:15:35;96998.53;;;23.60;51.76
74346;BME280;62776;50.518;6.732;2023-10-09T11:18:40;96992.13;;;23.64;50.79
74346;BME280;62776;50.518;6.732;2023-10-09T11:21:32;96988.44;;;23.82;53.25
74346;BME280;62776;50.518;6.732;2023-10-09T11:24:28;96981.94;;;23.88;53.10
74346;BME280;62776;50.518;6.732;2023-10-09T11:27:19;96985.88;;;23.96;51.55
74346;BME280;62776;50.518;6.732;2023-10-09T11:30:08;96986.41;;;24.03;53.78
74346;BME280;62776;50.518;6.732;2023-10-09T11:33:17;96980.75;;;24.09;54.24
74346;BME280;62776;50.518;6.732;2023-10-09T11:36:03;96990.09;;;24.16;54.01
74346;BME280;62776;50.518;6.732;2023-10-09T11:38:53;96994.47;;;24.17;52.46
74346;BME280;62776;50.518;6.732;2023-10-09T11:42:07;96988.72;;;24.09;50.95
74346;BME280;62776;50.518;6.732;2023-10-09T11:44:53;96987.16;;;24.21;52.34
74346;BME280;62776;50.518;6.732;2023-10-09T11:47:41;96984.16;;;24.27;52.87
74346;BME280;62776;50.518;6.732;2023-10-09T11:50:51;96988.13;;;24.20;51.42
74346;BME280;62776;50.518;6.732;2023-10-09T11:53:58;96985.72;;;24.31;52.21
74346;BME280;62776;50.518;6.732;2023-10-09T11:56:45;96987.25;;;24.35;52.96
74346;BME280;62776;50.518;6.732;2023-10-09T11:59:32;96980.03;;;24.37;49.55
74346;BME280;62776;50.518;6.732;2023-10-09T12:02:27;96980.72;;;24.40;51.83
74346;BME280;62776;50.518;6.732;2023-10-09T12:05:14;96986.88;;;24.41;49.83
74346;BME280;62776;50.518;6.732;2023-10-09T12:08:03;96996.47;;;24.43;50.73
74346;BME280;62776;50.518;6.732;2023-10-09T12:10:59;96985.63;;;24.32;47.82
74346;BME280;62776;50.518;6.732;2023-10-09T12:14:01;96982.34;;;24.43;52.55
74346;BME280;62776;50.518;6.732;2023-10-09T12:16:53;96979.84;;;24.40;50.71
74346;BME280;62776;50.518;6.732;2023-10-09T12:19:51;96981.75;;;24.38;48.73
74346;BME280;62776;50.518;6.732;2023-10-09T12:22:40;96981.22;;;24.47;49.86
74346;BME280;62776;50.518;6.732;2023-10-09T12:25:38;96979.84;;;24.40;47.53
74346;BME280;62776;50.518;6.732;2023-10-09T12:28:24;96985.75;;;24.45;47.57
74346;BME280;62776;50.518;6.732;2023-10-09T12:31:13;96978.81;;;24.42;48.37
74346;BME280;62776;50.518;6.732;2023-10-09T12:34:23;96976.44;;;24.38;48.02
74346;BME280;62776;50.518;6.732;2023-10-09T12:37:12;96978.41;;;24.34;45.69
74346;BME280;62776;50.518;6.732;2023-10-09T12:39:59;96981.75;;;24.38;49.85
74346;BME280;62776;50.518;6.732;2023-10-09T12:43:01;96988.00;;;24.37;50.02
74346;BME280;62776;50.518;6.732;2023-10-09T12:46:10;96987.88;;;24.24;44.75
74346;BME280;62776;50.518;6.732;2023-10-09T12:49:02;96987.06;;;24.38;46.08
74346;BME280;62776;50.518;6.732;2023-10-09T12:51:56;96990.66;;;24.37;43.84
74346;BME280;62776;50.518;6.732;2023-10-09T12:54:50;96980.63;;;24.42;44.22
74346;BME280;62776;50.518;6.732;2023-10-09T12:57:53;96985.75;;;24.45;46.93
74346;BME280;62776;50.518;6.732;2023-10-09T13:00:53;96993.19;;;24.54;47.76
74346;BME280;62776;50.518;6.732;2023-10-09T13:03:42;96991.91;;;24.61;48.74
74346;BME280;62776;50.518;6.732;2023-10-09T13:06:30;97000.47;;;24.66;47.32
74346;BME280;62776;50.518;6.732;2023-10-09T13:09:21;96992.38;;;24.67;46.55
74346;BME280;62776;50.518;6.732;2023-10-09T13:12:27;97000.53;;;24.64;45.16
74346;BME280;62776;50.518;6.732;2023-10-09T13:15:32;97000.22;;;24.55;46.97
74346;BME280;62776;50.518;6.732;2023-10-09T13:21:04;96998.16;;;24.60;48.21
74346;BME280;62776;50.518;6.732;2023-10-09T13:23:51;97002.63;;;24.59;48.02
74346;BME280;62776;50.518;6.732;2023-10-09T13:26:41;96997.66;;;24.53;47.12
74346;BME280;62776;50.518;6.732;2023-10-09T13:29:29;96991.75;;;24.48;47.93
74346;BME280;62776;50.518;6.732;2023-10-09T13:32:19;96991.50;;;24.37;46.49
74346;BME280;62776;50.518;6.732;2023-10-09T13:35:06;96988.38;;;24.31;45.91
74346;BME280;62776;50.518;6.732;2023-10-09T13:37:52;96996.88;;;24.22;45.82
74346;BME280;62776;50.518;6.732;2023-10-09T13:40:41;96987.72;;;24.12;45.47
74346;BME280;62776;50.518;6.732;2023-10-09T13:43:32;96991.72;;;24.03;47.59
74346;BME280;62776;50.518;6.732;2023-10-09T13:46:19;96993.41;;;24.04;47.82
74346;BME280;62776;50.518;6.732;2023-10-09T13:49:05;96986.56;;;24.00;44.69
74346;BME280;62776;50.518;6.732;2023-10-09T13:51:55;96983.22;;;23.96;46.28
74346;BME280;62776;50.518;6.732;2023-10-09T13:54:42;96986.81;;;23.95;46.58
74346;BME280;62776;50.518;6.732;2023-10-09T13:57:28;96998.84;;;23.87;45.47
74346;BME280;62776;50.518;6.732;2023-10-09T14:00:17;96997.38;;;23.81;43.16
74346;BME280;62776;50.518;6.732;2023-10-09T14:03:18;97000.09;;;23.80;44.28
74346;BME280;62776;50.518;6.732;2023-10-09T14:06:06;96997.38;;;23.81;44.42
74346;BME280;62776;50.518;6.732;2023-10-09T14:09:02;96997.38;;;23.81;47.67
74346;BME280;62776;50.518;6.732;2023-10-09T14:11:51;96995.66;;;23.80;46.16
74346;BME280;62776;50.518;6.732;2023-10-09T14:14:39;96995.66;;;23.80;46.59
74346;BME280;62776;50.518;6.732;2023-10-09T14:17:26;96999.41;;;23.76;46.87
74346;BME280;62776;50.518;6.732;2023-10-09T14:20:17;97001.31;;;23.74;47.46
74346;BME280;62776;50.518;6.732;2023-10-09T14:23:17;97001.19;;;23.60;47.26
74346;BME280;62776;50.518;6.732;2023-10-09T14:26:07;97008.97;;;23.47;44.42
74346;BME280;62776;50.518;6.732;2023-10-09T14:28:54;97002.50;;;23.36;42.37
74346;BME280;62776;50.518;6.732;2023-10-09T14:31:43;96988.69;;;23.29;44.32
74346;BME280;62776;50.518;6.732;2023-10-09T14:34:35;96995.69;;;23.15;44.06
74346;BME280;62776;50.518;6.732;2023-10-09T14:37:22;96988.03;;;23.26;46.49
74346;BME280;62776;50.518;6.732;2023-10-09T14:40:09;96991.34;;;23.29;46.24
74346;BME280;62776;50.518;6.732;2023-10-09T14:42:58;96988.44;;;23.51;45.43
74346;BME280;62776;50.518;6.732;2023-10-09T14:45:51;96987.06;;;23.60;43.18
74346;BME280;62776;50.518;6.732;2023-10-09T14:48:39;96982.28;;;23.51;43.07
74346;BME280;62776;50.518;6.732;2023-10-09T14:51:27;96983.56;;;23.59;43.31
74346;BME280;62776;50.518;6.732;2023-10-09T14:54:13;96991.19;;;23.65;43.52
74346;BME280;62776;50.518;6.732;2023-10-09T14:57:04;96990.25;;;23.66;44.69
74346;BME280;62776;50.518;6.732;2023-10-09T14:59:53;96989.81;;;23.58;43.54
74346;BME280;62776;50.518;6.732;2023-10-09T15:02:39;96994.25;;;23.42;47.42
74346;BME280;62776;50.518;6.732;2023-10-09T15:05:25;96990.84;;;23.23;45.41
74346;BME280;62776;50.518;6.732;2023-10-09T15:08:11;96991.56;;;23.09;45.32
74346;BME280;62776;50.518;6.732;2023-10-09T15:10:57;97000.56;;;22.89;46.18
74346;BME280;62776;50.518;6.732;2023-10-09T15:13:46;96994.25;;;22.75;47.60
74346;BME280;62776;50.518;6.732;2023-10-09T15:16:32;97004.75;;;22.59;46.67
74346;BME280;62776;50.518;6.732;2023-10-09T15:19:19;97002.56;;;22.50;47.14
74346;BME280;62776;50.518;6.732;2023-10-09T15:22:13;97006.75;;;22.37;47.99